createdAt,value
2023-01-21T00:00:37.938Z,1020.53
2023-01-21T00:01:37.865Z,1020.56
2023-01-21T00:02:37.832Z,1020.57
2023-01-21T00:03:37.787Z,1020.55
2023-01-21T00:04:37.645Z,1020.50
2023-01-21T00:05:37.571Z,1020.53
2023-01-21T00:06:37.500Z,1020.49
2023-01-21T00:07:37.427Z,1020.54
2023-01-21T00:08:37.412Z,1020.50
2023-01-21T00:09:37.291Z,1020.49
2023-01-21T00:10:37.227Z,1020.55
2023-01-21T00:11:37.149Z,1020.55
2023-01-21T00:12:37.079Z,1020.58
2023-01-21T00:13:36.996Z,1020.53
2023-01-21T00:14:36.939Z,1020.58
2023-01-21T00:15:36.930Z,1020.57
2023-01-21T00:16:36.784Z,1020.59
2023-01-21T00:17:36.729Z,1020.60
2023-01-21T00:18:36.636Z,1020.59
2023-01-21T00:19:36.567Z,1020.56
2023-01-21T00:20:36.510Z,1020.57
2023-01-21T00:21:36.422Z,1020.64
2023-01-21T00:22:36.348Z,1020.64
2023-01-21T00:23:36.280Z,1020.64
2023-01-21T00:24:36.209Z,1020.59
2023-01-21T00:25:36.139Z,1020.54
2023-01-21T00:26:36.064Z,1020.61
2023-01-21T00:27:35.987Z,1020.55
2023-01-21T00:28:35.921Z,1020.57
2023-01-21T00:29:35.845Z,1020.60
2023-01-21T00:30:35.812Z,1020.57
2023-01-21T00:31:35.788Z,1020.62
2023-01-21T00:32:35.634Z,1020.63
2023-01-21T00:33:35.584Z,1020.63
2023-01-21T00:34:35.487Z,1020.62
2023-01-21T00:35:35.415Z,1020.63
2023-01-21T00:36:35.362Z,1020.64
2023-01-21T00:37:35.273Z,1020.68
2023-01-21T00:38:35.270Z,1020.67
2023-01-21T00:39:35.131Z,1020.71
2023-01-21T00:40:35.058Z,1020.71
2023-01-21T00:41:35.001Z,1020.67
2023-01-21T00:42:34.914Z,1020.72
2023-01-21T00:43:34.841Z,1020.73
2023-01-21T00:44:34.773Z,1020.77
2023-01-21T00:45:34.696Z,1020.75
2023-01-21T00:46:34.664Z,1020.78
2023-01-21T00:47:34.556Z,1020.78
2023-01-21T00:48:34.485Z,1020.85
2023-01-21T00:49:34.413Z,1020.86
2023-01-21T00:50:34.340Z,1020.77
2023-01-21T00:51:34.271Z,1020.84
2023-01-21T00:52:34.205Z,1020.89
2023-01-21T00:53:34.149Z,1020.88
2023-01-21T00:54:34.054Z,1020.89
2023-01-21T00:55:34.011Z,1020.91
2023-01-21T00:56:33.908Z,1020.94
2023-01-21T00:57:33.837Z,1020.90
2023-01-21T00:58:33.763Z,1020.98
2023-01-21T00:59:33.725Z,1020.98
2023-01-21T01:00:33.620Z,1021.01
2023-01-21T01:01:33.609Z,1020.99
2023-01-21T01:02:33.522Z,1021.05
2023-01-21T01:03:33.421Z,1021.06
2023-01-21T01:04:33.368Z,1021.07
2023-01-21T01:05:33.277Z,1021.01
2023-01-21T01:06:33.200Z,1021.07
2023-01-21T01:07:33.123Z,1021.07
2023-01-21T01:08:33.083Z,1021.07
2023-01-21T01:09:32.972Z,1021.11
2023-01-21T01:10:32.930Z,1021.12
2023-01-21T01:11:32.856Z,1021.12
2023-01-21T01:12:32.763Z,1021.13
2023-01-21T01:13:32.728Z,1021.15
2023-01-21T01:14:32.622Z,1021.17
2023-01-21T01:15:32.546Z,1021.22
2023-01-21T01:16:32.478Z,1021.21
2023-01-21T01:17:32.400Z,1021.18
2023-01-21T01:18:32.328Z,1021.18
2023-01-21T01:19:32.273Z,1021.21
2023-01-21T01:20:32.189Z,1021.23
2023-01-21T01:21:32.118Z,1021.24
2023-01-21T01:22:32.079Z,1021.27
2023-01-21T01:23:31.968Z,1021.26
2023-01-21T01:24:31.905Z,1021.29
2023-01-21T01:25:31.825Z,1021.29
2023-01-21T01:26:31.756Z,1021.33
2023-01-21T01:27:31.707Z,1021.30
2023-01-21T01:28:31.626Z,1021.26
2023-01-21T01:29:31.549Z,1021.30
2023-01-21T01:30:31.486Z,1021.34
2023-01-21T01:31:31.419Z,1021.31
2023-01-21T01:32:31.323Z,1021.31
2023-01-21T01:33:31.254Z,1021.31
2023-01-21T01:34:31.202Z,1021.36
2023-01-21T01:35:31.109Z,1021.37
2023-01-21T01:36:31.035Z,1021.38
2023-01-21T01:37:30.963Z,1021.40
2023-01-21T01:38:30.893Z,1021.43
2023-01-21T01:39:30.817Z,1021.49
2023-01-21T01:40:30.765Z,1021.44
2023-01-21T01:41:30.679Z,1021.45
2023-01-21T01:42:30.603Z,1021.49
2023-01-21T01:43:30.532Z,1021.49
2023-01-21T01:44:30.460Z,1021.51
2023-01-21T01:45:30.397Z,1021.46
2023-01-21T01:46:30.364Z,1021.41
2023-01-21T01:47:30.252Z,1021.37
2023-01-21T01:48:30.171Z,1021.43
2023-01-21T01:49:30.100Z,1021.33
2023-01-21T01:50:30.036Z,1021.38
2023-01-21T01:51:29.962Z,1021.32
2023-01-21T01:52:29.892Z,1021.36
2023-01-21T01:53:29.824Z,1021.33
2023-01-21T01:54:29.746Z,1021.35
2023-01-21T01:55:29.669Z,1021.37
2023-01-21T01:56:29.599Z,1021.37
2023-01-21T01:57:29.532Z,1021.35
2023-01-21T01:58:29.458Z,1021.38
2023-01-21T01:59:29.388Z,1021.33
2023-01-21T02:00:29.321Z,1021.34
2023-01-21T02:01:29.280Z,1021.37
2023-01-21T02:02:29.226Z,1021.31
2023-01-21T02:03:29.098Z,1021.35
2023-01-21T02:04:29.026Z,1021.35
2023-01-21T02:05:28.960Z,1021.38
2023-01-21T02:06:28.879Z,1021.37
2023-01-21T02:07:28.810Z,1021.37
2023-01-21T02:08:28.736Z,1021.37
2023-01-21T02:09:28.669Z,1021.42
2023-01-21T02:10:28.597Z,1021.41
2023-01-21T02:11:28.533Z,1021.40
2023-01-21T02:12:28.464Z,1021.41
2023-01-21T02:13:28.391Z,1021.38
2023-01-21T02:14:28.311Z,1021.38
2023-01-21T02:15:28.240Z,1021.37
2023-01-21T02:16:28.226Z,1021.37
2023-01-21T02:17:28.099Z,1021.38
2023-01-21T02:18:28.019Z,1021.42
2023-01-21T02:19:27.950Z,1021.44
2023-01-21T02:20:27.877Z,1021.42
2023-01-21T02:21:27.821Z,1021.47
2023-01-21T02:22:27.729Z,1021.49
2023-01-21T02:23:27.667Z,1021.52
2023-01-21T02:24:27.594Z,1021.49
2023-01-21T02:25:27.520Z,1021.50
2023-01-21T02:26:27.453Z,1021.51
2023-01-21T02:27:30.970Z,1021.50
2023-01-21T02:28:27.328Z,1021.53
2023-01-21T02:29:27.233Z,1021.54
2023-01-21T02:30:27.172Z,1021.57
2023-01-21T02:31:27.157Z,1021.56
2023-01-21T02:32:27.013Z,1021.54
2023-01-21T02:33:26.947Z,1021.55
2023-01-21T02:34:26.871Z,1021.56
2023-01-21T02:35:26.800Z,1021.58
2023-01-21T02:36:26.733Z,1021.55
2023-01-21T02:37:26.656Z,1021.55
2023-01-21T02:38:26.584Z,1021.55
2023-01-21T02:39:26.510Z,1021.59
2023-01-21T02:40:26.463Z,1021.64
2023-01-21T02:41:26.380Z,1021.56
2023-01-21T02:42:26.304Z,1021.55
2023-01-21T02:43:26.227Z,1021.54
2023-01-21T02:44:26.161Z,1021.56
2023-01-21T02:45:26.090Z,1021.55
2023-01-21T02:46:26.053Z,1021.62
2023-01-21T02:47:25.942Z,1021.62
2023-01-21T02:48:25.879Z,1021.63
2023-01-21T02:49:25.800Z,1021.62
2023-01-21T02:50:25.729Z,1021.61
2023-01-21T02:51:25.661Z,1021.59
2023-01-21T02:52:25.582Z,1021.61
2023-01-21T02:53:25.534Z,1021.63
2023-01-21T02:54:25.440Z,1021.65
2023-01-21T02:55:25.378Z,1021.66
2023-01-21T02:56:25.302Z,1021.68
2023-01-21T02:57:25.232Z,1021.65
2023-01-21T02:58:25.156Z,1021.66
2023-01-21T02:59:25.081Z,1021.71
2023-01-21T03:00:25.020Z,1021.71
2023-01-21T03:01:24.952Z,1021.67
2023-01-21T03:02:24.868Z,1021.67
2023-01-21T03:03:24.804Z,1021.64
2023-01-21T03:04:24.729Z,1021.59
2023-01-21T03:05:24.666Z,1021.54
2023-01-21T03:06:24.577Z,1021.48
2023-01-21T03:07:24.514Z,1021.51
2023-01-21T03:08:24.438Z,1021.48
2023-01-21T03:09:24.385Z,1021.47
2023-01-21T03:10:24.306Z,1021.47
2023-01-21T03:11:24.231Z,1021.46
2023-01-21T03:12:24.157Z,1021.50
2023-01-21T03:13:24.095Z,1021.52
2023-01-21T03:14:24.028Z,1021.51
2023-01-21T03:15:23.943Z,1021.53
2023-01-21T03:16:23.908Z,1021.58
2023-01-21T03:17:23.808Z,1021.59
2023-01-21T03:18:23.768Z,1021.57
2023-01-21T03:19:23.658Z,1021.58
2023-01-21T03:20:23.581Z,1021.60
2023-01-21T03:21:23.517Z,1021.62
2023-01-21T03:22:23.443Z,1021.63
2023-01-21T03:23:23.369Z,1021.68
2023-01-21T03:24:23.298Z,1021.72
2023-01-21T03:25:23.228Z,1021.79
2023-01-21T03:26:23.149Z,1021.82
2023-01-21T03:27:23.120Z,1021.82
2023-01-21T03:28:23.017Z,1021.81
2023-01-21T03:29:22.989Z,1021.83
2023-01-21T03:30:22.868Z,1021.83
2023-01-21T03:31:22.802Z,1021.78
2023-01-21T03:32:22.734Z,1021.79
2023-01-21T03:33:22.654Z,1021.80
2023-01-21T03:34:22.586Z,1021.85
2023-01-21T03:35:22.511Z,1021.86
2023-01-21T03:36:22.437Z,1021.83
2023-01-21T03:37:22.371Z,1021.81
2023-01-21T03:38:22.297Z,1021.84
2023-01-21T03:39:22.227Z,1021.79
2023-01-21T03:40:22.155Z,1021.85
2023-01-21T03:41:22.129Z,1021.91
2023-01-21T03:42:22.012Z,1021.87
2023-01-21T03:43:21.943Z,1021.91
2023-01-21T03:44:21.896Z,1021.85
2023-01-21T03:45:21.879Z,1021.85
2023-01-21T03:46:21.724Z,1021.88
2023-01-21T03:47:21.662Z,1021.88
2023-01-21T03:48:21.580Z,1021.87
2023-01-21T03:49:21.513Z,1021.81
2023-01-21T03:50:21.440Z,1021.84
2023-01-21T03:51:21.384Z,1021.84
2023-01-21T03:52:21.295Z,1021.82
2023-01-21T03:53:21.242Z,1021.79
2023-01-21T03:54:21.152Z,1021.78
2023-01-21T03:55:21.083Z,1021.72
2023-01-21T03:56:21.009Z,1021.72
2023-01-21T03:57:20.949Z,1021.67
2023-01-21T03:58:20.866Z,1021.69
2023-01-21T03:59:20.813Z,1021.66
2023-01-21T04:00:20.732Z,1021.65
2023-01-21T04:01:20.714Z,1021.68
2023-01-21T04:02:20.657Z,1021.65
2023-01-21T04:03:20.518Z,1021.67
2023-01-21T04:04:20.451Z,1021.63
2023-01-21T04:05:20.384Z,1021.65
2023-01-21T04:06:20.295Z,1021.62
2023-01-21T04:07:20.233Z,1021.68
2023-01-21T04:08:20.155Z,1021.64
2023-01-21T04:09:20.111Z,1021.62
2023-01-21T04:10:20.009Z,1021.65
2023-01-21T04:11:19.941Z,1021.62
2023-01-21T04:12:19.879Z,1021.61
2023-01-21T04:13:19.798Z,1021.64
2023-01-21T04:14:19.722Z,1021.65
2023-01-21T04:15:19.660Z,1021.65
2023-01-21T04:16:19.676Z,1021.66
2023-01-21T04:17:19.512Z,1021.63
2023-01-21T04:18:19.436Z,1021.68
2023-01-21T04:19:19.382Z,1021.68
2023-01-21T04:20:19.449Z,1021.66
2023-01-21T04:21:19.234Z,1021.70
2023-01-21T04:22:19.149Z,1021.71
2023-01-21T04:23:19.081Z,1021.70
2023-01-21T04:24:19.020Z,1021.69
2023-01-21T04:25:18.945Z,1021.67
2023-01-21T04:26:18.862Z,1021.70
2023-01-21T04:27:18.849Z,1021.71
2023-01-21T04:28:18.721Z,1021.67
2023-01-21T04:29:18.650Z,1021.69
2023-01-21T04:30:18.999Z,1021.73
2023-01-21T04:31:18.547Z,1021.71
2023-01-21T04:32:18.444Z,1021.77
2023-01-21T04:33:18.369Z,1021.77
2023-01-21T04:34:18.288Z,1021.79
2023-01-21T04:35:18.226Z,1021.85
2023-01-21T04:36:18.153Z,1021.86
2023-01-21T04:37:18.090Z,1021.87
2023-01-21T04:38:18.014Z,1021.89
2023-01-21T04:39:17.944Z,1021.87
2023-01-21T04:40:18.229Z,1021.90
2023-01-21T04:41:17.910Z,1021.83
2023-01-21T04:42:17.715Z,1021.80
2023-01-21T04:43:17.646Z,1021.80
2023-01-21T04:44:17.574Z,1021.77
2023-01-21T04:45:17.502Z,1021.78
2023-01-21T04:46:17.465Z,1021.75
2023-01-21T04:47:17.367Z,1021.78
2023-01-21T04:48:17.287Z,1021.77
2023-01-21T04:49:17.222Z,1021.76
2023-01-21T04:50:17.329Z,1021.74
2023-01-21T04:51:17.132Z,1021.79
2023-01-21T04:52:17.001Z,1021.77
2023-01-21T04:53:16.930Z,1021.84
2023-01-21T04:54:16.860Z,1021.83
2023-01-21T04:55:16.784Z,1021.84
2023-01-21T04:56:16.744Z,1021.81
2023-01-21T04:57:16.648Z,1021.85
2023-01-21T04:58:16.573Z,1021.85
2023-01-21T04:59:16.501Z,1021.87
2023-01-21T05:00:16.946Z,1021.79
2023-01-21T05:01:16.425Z,1021.81
2023-01-21T05:02:16.300Z,1021.81
2023-01-21T05:03:16.217Z,1021.83
2023-01-21T05:04:16.138Z,1021.82
2023-01-21T05:05:16.075Z,1021.87
2023-01-21T05:06:16.003Z,1021.86
2023-01-21T05:07:15.928Z,1021.89
2023-01-21T05:08:15.854Z,1021.90
2023-01-21T05:09:15.804Z,1021.86
2023-01-21T05:10:16.068Z,1021.90
2023-01-21T05:11:15.642Z,1022.00
2023-01-21T05:12:15.564Z,1021.96
2023-01-21T05:13:15.505Z,1022.02
2023-01-21T05:14:15.421Z,1021.96
2023-01-21T05:15:15.362Z,1021.97
2023-01-21T05:16:15.286Z,1021.99
2023-01-21T05:17:15.212Z,1022.01
2023-01-21T05:18:15.136Z,1022.05
2023-01-21T05:19:15.372Z,1022.04
2023-01-21T05:20:15.168Z,1022.01
2023-01-21T05:21:14.927Z,1022.05
2023-01-21T05:22:14.846Z,1022.07
2023-01-21T05:23:14.780Z,1022.11
2023-01-21T05:24:14.702Z,1022.12
2023-01-21T05:25:14.633Z,1022.12
2023-01-21T05:26:14.558Z,1022.11
2023-01-21T05:27:14.502Z,1022.13
2023-01-21T05:28:14.419Z,1022.13
2023-01-21T05:29:14.353Z,1022.17
2023-01-21T05:30:14.387Z,1022.18
2023-01-21T05:31:14.354Z,1022.13
2023-01-21T05:32:14.140Z,1022.17
2023-01-21T05:33:14.068Z,1022.23
2023-01-21T05:34:13.986Z,1022.23
2023-01-21T05:35:13.916Z,1022.21
2023-01-21T05:36:13.848Z,1022.22
2023-01-21T05:37:13.773Z,1022.15
2023-01-21T05:38:13.698Z,1022.15
2023-01-21T05:39:13.663Z,1022.20
2023-01-21T05:40:13.580Z,1022.20
2023-01-21T05:41:13.492Z,1022.24
2023-01-21T05:42:13.415Z,1022.21
2023-01-21T05:43:13.354Z,1022.23
2023-01-21T05:44:13.305Z,1022.21
2023-01-21T05:45:13.232Z,1022.26
2023-01-21T05:46:13.155Z,1022.25
2023-01-21T05:47:13.057Z,1022.29
2023-01-21T05:48:12.983Z,1022.32
2023-01-21T05:49:12.913Z,1022.30
2023-01-21T05:50:12.852Z,1022.33
2023-01-21T05:51:12.844Z,1022.37
2023-01-21T05:52:12.699Z,1022.37
2023-01-21T05:53:12.631Z,1022.35
2023-01-21T05:54:12.563Z,1022.33
2023-01-21T05:55:12.483Z,1022.35
2023-01-21T05:56:12.423Z,1022.35
2023-01-21T05:57:12.340Z,1022.31
2023-01-21T05:58:12.266Z,1022.33
2023-01-21T05:59:12.193Z,1022.42
2023-01-21T06:00:12.134Z,1022.36
2023-01-21T06:01:12.072Z,1022.36
2023-01-21T06:02:12.076Z,1022.35
2023-01-21T06:03:11.914Z,1022.37
2023-01-21T06:04:11.842Z,1022.38
2023-01-21T06:05:11.773Z,1022.38
2023-01-21T06:06:11.698Z,1022.39
2023-01-21T06:07:11.625Z,1022.39
2023-01-21T06:08:11.556Z,1022.46
2023-01-21T06:09:11.485Z,1022.48
2023-01-21T06:10:11.405Z,1022.41
2023-01-21T06:11:11.337Z,1022.45
2023-01-21T06:12:11.271Z,1022.48
2023-01-21T06:13:11.194Z,1022.43
2023-01-21T06:14:11.118Z,1022.50
2023-01-21T06:15:11.055Z,1022.48
2023-01-21T06:16:11.033Z,1022.42
2023-01-21T06:17:10.910Z,1022.51
2023-01-21T06:18:10.836Z,1022.44
2023-01-21T06:19:10.764Z,1022.45
2023-01-21T06:20:10.692Z,1022.50
2023-01-21T06:21:10.621Z,1022.46
2023-01-21T06:22:10.549Z,1022.50
2023-01-21T06:23:10.477Z,1022.46
2023-01-21T06:24:10.407Z,1022.53
2023-01-21T06:25:10.340Z,1022.52
2023-01-21T06:26:10.263Z,1022.53
2023-01-21T06:27:10.193Z,1022.53
2023-01-21T06:28:10.148Z,1022.53
2023-01-21T06:29:10.051Z,1022.51
2023-01-21T06:30:09.974Z,1022.54
2023-01-21T06:31:09.956Z,1022.54
2023-01-21T06:32:09.871Z,1022.56
2023-01-21T06:33:09.775Z,1022.57
2023-01-21T06:34:09.694Z,1022.60
2023-01-21T06:35:09.616Z,1022.59
2023-01-21T06:36:09.546Z,1022.60
2023-01-21T06:37:09.479Z,1022.61
2023-01-21T06:38:09.431Z,1022.61
2023-01-21T06:39:09.331Z,1022.66
2023-01-21T06:40:09.260Z,1022.62
2023-01-21T06:41:09.201Z,1022.63
2023-01-21T06:42:09.147Z,1022.67
2023-01-21T06:43:09.043Z,1022.67
2023-01-21T06:44:08.980Z,1022.72
2023-01-21T06:45:08.904Z,1022.71
2023-01-21T06:46:08.865Z,1022.78
2023-01-21T06:47:08.819Z,1022.74
2023-01-21T06:48:08.708Z,1022.72
2023-01-21T06:49:08.630Z,1022.77
2023-01-21T06:50:08.585Z,1022.82
2023-01-21T06:51:08.511Z,1022.81
2023-01-21T06:52:08.414Z,1022.76
2023-01-21T06:53:08.388Z,1022.85
2023-01-21T06:54:08.271Z,1022.83
2023-01-21T06:55:08.188Z,1022.85
2023-01-21T06:56:08.140Z,1022.87
2023-01-21T06:57:08.047Z,1022.89
2023-01-21T06:58:07.993Z,1022.86
2023-01-21T06:59:07.906Z,1022.86
2023-01-21T07:00:07.864Z,1022.84
2023-01-21T07:01:07.775Z,1022.86
2023-01-21T07:02:07.698Z,1022.79
2023-01-21T07:03:07.616Z,1022.81
2023-01-21T07:04:07.560Z,1022.79
2023-01-21T07:05:07.529Z,1022.81
2023-01-21T07:06:07.416Z,1022.86
2023-01-21T07:07:07.340Z,1022.86
2023-01-21T07:08:07.274Z,1022.87
2023-01-21T07:09:07.197Z,1022.86
2023-01-21T07:10:07.115Z,1022.86
2023-01-21T07:11:07.050Z,1022.92
2023-01-21T07:12:06.984Z,1022.88
2023-01-21T07:13:06.905Z,1022.88
2023-01-21T07:14:06.834Z,1022.98
2023-01-21T07:15:06.755Z,1022.92
2023-01-21T07:16:07.065Z,1022.91
2023-01-21T07:17:06.620Z,1022.90
2023-01-21T07:18:06.544Z,1022.90
2023-01-21T07:19:06.478Z,1022.86
2023-01-21T07:20:06.402Z,1022.87
2023-01-21T07:21:06.332Z,1022.88
2023-01-21T07:22:06.264Z,1022.90
2023-01-21T07:23:06.199Z,1023.00
2023-01-21T07:24:06.110Z,1022.96
2023-01-21T07:25:06.053Z,1022.93
2023-01-21T07:26:05.972Z,1022.90
2023-01-21T07:27:05.921Z,1023.01
2023-01-21T07:28:05.827Z,1022.92
2023-01-21T07:29:05.770Z,1022.92
2023-01-21T07:30:05.690Z,1022.93
2023-01-21T07:31:05.680Z,1022.95
2023-01-21T07:32:05.607Z,1022.99
2023-01-21T07:33:05.474Z,1022.91
2023-01-21T07:34:05.396Z,1022.93
2023-01-21T07:35:05.322Z,1023.02
2023-01-21T07:36:05.259Z,1023.00
2023-01-21T07:37:05.201Z,1023.05
2023-01-21T07:38:05.141Z,1023.05
2023-01-21T07:39:05.038Z,1023.02
2023-01-21T07:40:04.979Z,1023.11
2023-01-21T07:41:04.912Z,1023.09
2023-01-21T07:42:04.823Z,1023.08
2023-01-21T07:43:04.754Z,1023.11
2023-01-21T07:44:04.679Z,1023.11
2023-01-21T07:45:04.605Z,1023.13
2023-01-21T07:46:04.536Z,1023.13
2023-01-21T07:47:04.463Z,1023.19
2023-01-21T07:48:04.401Z,1023.16
2023-01-21T07:49:04.325Z,1023.15
2023-01-21T07:50:04.251Z,1023.14
2023-01-21T07:51:04.188Z,1023.13
2023-01-21T07:52:04.111Z,1023.15
2023-01-21T07:53:04.042Z,1023.09
2023-01-21T07:54:03.982Z,1023.13
2023-01-21T07:55:03.893Z,1023.06
2023-01-21T07:56:03.823Z,1023.12
2023-01-21T07:57:03.747Z,1023.08
2023-01-21T07:58:03.714Z,1023.08
2023-01-21T07:59:03.607Z,1023.01
2023-01-21T08:00:03.563Z,1023.09
2023-01-21T08:01:03.467Z,1023.08
2023-01-21T08:02:03.559Z,1023.13
2023-01-21T08:03:03.318Z,1023.11
2023-01-21T08:04:03.302Z,1023.09
2023-01-21T08:05:03.173Z,1023.11
2023-01-21T08:06:03.104Z,1023.14
2023-01-21T08:07:03.044Z,1023.11
2023-01-21T08:08:02.969Z,1023.19
2023-01-21T08:09:02.893Z,1023.16
2023-01-21T08:10:02.855Z,1023.20
2023-01-21T08:11:02.747Z,1023.19
2023-01-21T08:12:02.676Z,1023.15
2023-01-21T08:13:02.606Z,1023.18
2023-01-21T08:14:02.532Z,1023.10
2023-01-21T08:15:02.470Z,1023.13
2023-01-21T08:16:02.429Z,1023.18
2023-01-21T08:17:02.324Z,1023.13
2023-01-21T08:18:02.246Z,1023.15
2023-01-21T08:19:02.175Z,1023.23
2023-01-21T08:20:02.115Z,1023.09
2023-01-21T08:21:02.034Z,1023.16
2023-01-21T08:22:01.977Z,1023.18
2023-01-21T08:23:01.896Z,1023.16
2023-01-21T08:24:01.835Z,1023.17
2023-01-21T08:25:01.758Z,1023.22
2023-01-21T08:26:01.680Z,1023.22
2023-01-21T08:27:01.620Z,1023.22
2023-01-21T08:28:01.579Z,1023.20
2023-01-21T08:29:01.460Z,1023.15
2023-01-21T08:30:01.394Z,1023.18
2023-01-21T08:31:01.345Z,1023.20
2023-01-21T08:32:01.255Z,1023.15
2023-01-21T08:33:01.185Z,1023.14
2023-01-21T08:34:01.108Z,1023.12
2023-01-21T08:35:01.035Z,1023.20
2023-01-21T08:36:00.964Z,1023.17
2023-01-21T08:37:00.894Z,1023.25
2023-01-21T08:38:00.819Z,1023.19
2023-01-21T08:39:00.749Z,1023.23
2023-01-21T08:40:00.678Z,1023.24
2023-01-21T08:41:00.625Z,1023.14
2023-01-21T08:42:00.532Z,1023.16
2023-01-21T08:43:00.471Z,1023.20
2023-01-21T08:44:00.413Z,1023.19
2023-01-21T08:45:00.337Z,1023.15
2023-01-21T08:46:00.291Z,1023.10
2023-01-21T08:47:00.184Z,1023.14
2023-01-21T08:48:00.143Z,1023.11
2023-01-21T08:49:00.044Z,1023.09
2023-01-21T08:49:59.977Z,1023.10
2023-01-21T08:50:59.975Z,1023.11
2023-01-21T08:51:59.829Z,1023.13
2023-01-21T08:52:59.759Z,1023.11
2023-01-21T08:53:59.685Z,1023.12
2023-01-21T08:54:59.609Z,1023.11
2023-01-21T08:55:59.551Z,1023.14
2023-01-21T08:56:59.477Z,1023.12
2023-01-21T08:57:59.401Z,1023.10
2023-01-21T08:58:59.339Z,1023.11
2023-01-21T08:59:59.265Z,1023.11
2023-01-21T09:00:59.208Z,1023.08
2023-01-21T09:01:59.211Z,1023.11
2023-01-21T09:02:59.040Z,1023.12
2023-01-21T09:03:58.991Z,1023.15
2023-01-21T09:04:58.912Z,1023.09
2023-01-21T09:05:58.834Z,1023.02
2023-01-21T09:06:58.757Z,1023.08
2023-01-21T09:07:58.706Z,1023.04
2023-01-21T09:08:58.614Z,1023.08
2023-01-21T09:09:58.548Z,1023.11
2023-01-21T09:10:58.492Z,1023.18
2023-01-21T09:11:58.411Z,1023.20
2023-01-21T09:12:58.343Z,1023.16
2023-01-21T09:13:58.262Z,1023.17
2023-01-21T09:14:58.190Z,1023.10
2023-01-21T09:15:58.122Z,1023.14
2023-01-21T09:16:58.055Z,1023.12
2023-01-21T09:17:57.976Z,1023.13
2023-01-21T09:18:57.919Z,1023.20
2023-01-21T09:19:57.839Z,1023.19
2023-01-21T09:20:57.764Z,1023.20
2023-01-21T09:21:57.703Z,1023.22
2023-01-21T09:22:57.629Z,1023.15
2023-01-21T09:23:57.560Z,1023.16
2023-01-21T09:24:57.488Z,1023.14
2023-01-21T09:25:57.414Z,1023.23
2023-01-21T09:26:57.347Z,1023.21
2023-01-21T09:27:57.315Z,1023.22
2023-01-21T09:28:57.237Z,1023.23
2023-01-21T09:29:57.128Z,1023.21
2023-01-21T09:30:57.080Z,1023.15
2023-01-21T09:31:57.028Z,1023.21
2023-01-21T09:32:56.917Z,1023.28
2023-01-21T09:33:56.850Z,1023.24
2023-01-21T09:34:56.784Z,1023.29
2023-01-21T09:35:56.717Z,1023.27
2023-01-21T09:36:56.641Z,1023.26
2023-01-21T09:37:56.571Z,1023.27
2023-01-21T09:38:56.498Z,1023.25
2023-01-21T09:39:56.449Z,1023.21
2023-01-21T09:40:56.358Z,1023.24
2023-01-21T09:41:56.297Z,1023.28
2023-01-21T09:42:56.213Z,1023.26
2023-01-21T09:43:56.143Z,1023.24
2023-01-21T09:44:56.078Z,1023.30
2023-01-21T09:45:56.039Z,1023.26
2023-01-21T09:46:55.959Z,1023.32
2023-01-21T09:47:55.862Z,1023.31
2023-01-21T09:48:55.800Z,1023.27
2023-01-21T09:49:55.720Z,1023.29
2023-01-21T09:50:55.646Z,1023.31
2023-01-21T09:51:55.581Z,1023.31
2023-01-21T09:52:55.507Z,1023.31
2023-01-21T09:53:55.478Z,1023.29
2023-01-21T09:54:55.388Z,1023.31
2023-01-21T09:55:55.303Z,1023.32
2023-01-21T09:56:55.234Z,1023.33
2023-01-21T09:57:55.168Z,1023.33
2023-01-21T09:58:55.088Z,1023.32
2023-01-21T09:59:55.018Z,1023.33
2023-01-21T10:00:55.030Z,1023.29
2023-01-21T10:01:54.887Z,1023.25
2023-01-21T10:02:54.812Z,1023.26
2023-01-21T10:03:54.747Z,1023.19
2023-01-21T10:04:54.717Z,1023.27
2023-01-21T10:05:54.603Z,1023.26
2023-01-21T10:06:54.521Z,1023.23
2023-01-21T10:07:54.464Z,1023.26
2023-01-21T10:08:54.413Z,1023.22
2023-01-21T10:09:54.329Z,1023.27
2023-01-21T10:10:54.247Z,1023.27
2023-01-21T10:11:54.170Z,1023.21
2023-01-21T10:12:54.138Z,1023.20
2023-01-21T10:13:54.037Z,1023.26
2023-01-21T10:14:53.995Z,1023.22
2023-01-21T10:15:53.896Z,1023.20
2023-01-21T10:16:53.894Z,1023.18
2023-01-21T10:17:53.750Z,1023.16
2023-01-21T10:18:53.679Z,1023.16
2023-01-21T10:19:53.620Z,1023.15
2023-01-21T10:20:53.552Z,1023.14
2023-01-21T10:21:53.486Z,1023.10
2023-01-21T10:22:53.412Z,1023.13
2023-01-21T10:23:53.358Z,1023.09
2023-01-21T10:24:53.289Z,1023.10
2023-01-21T10:25:53.193Z,1023.07
2023-01-21T10:26:53.127Z,1023.12
2023-01-21T10:27:53.050Z,1023.11
2023-01-21T10:28:52.979Z,1023.01
2023-01-21T10:29:52.926Z,1023.03
2023-01-21T10:30:52.912Z,1023.02
2023-01-21T10:31:52.871Z,1023.03
2023-01-21T10:32:52.709Z,1023.07
2023-01-21T10:33:52.633Z,1023.04
2023-01-21T10:34:52.558Z,1022.98
2023-01-21T10:35:52.497Z,1022.93
2023-01-21T10:36:52.418Z,1023.00
2023-01-21T10:37:52.355Z,1022.94
2023-01-21T10:38:52.283Z,1022.93
2023-01-21T10:39:52.211Z,1022.91
2023-01-21T10:40:52.140Z,1022.90
2023-01-21T10:41:52.070Z,1022.79
2023-01-21T10:42:51.997Z,1022.83
2023-01-21T10:43:51.965Z,1022.77
2023-01-21T10:44:51.868Z,1022.81
2023-01-21T10:45:51.824Z,1022.81
2023-01-21T10:46:51.720Z,1022.87
2023-01-21T10:47:51.656Z,1022.82
2023-01-21T10:48:51.586Z,1022.74
2023-01-21T10:49:51.512Z,1022.77
2023-01-21T10:50:51.502Z,1022.84
2023-01-21T10:51:51.367Z,1022.84
2023-01-21T10:52:51.297Z,1022.88
2023-01-21T10:53:51.234Z,1022.78
2023-01-21T10:54:51.162Z,1022.77
2023-01-21T10:55:51.093Z,1022.88
2023-01-21T10:56:51.019Z,1022.84
2023-01-21T10:57:50.982Z,1022.86
2023-01-21T10:58:50.881Z,1022.83
2023-01-21T10:59:50.807Z,1022.83
2023-01-21T11:00:50.749Z,1022.81
2023-01-21T11:01:50.669Z,1022.80
2023-01-21T11:02:50.666Z,1022.76
2023-01-21T11:03:50.532Z,1022.81
2023-01-21T11:04:50.480Z,1022.78
2023-01-21T11:05:50.391Z,1022.79
2023-01-21T11:06:50.360Z,1022.84
2023-01-21T11:07:50.253Z,1022.72
2023-01-21T11:08:50.212Z,1022.67
2023-01-21T11:09:50.111Z,1022.64
2023-01-21T11:10:50.046Z,1022.65
2023-01-21T11:11:49.982Z,1022.61
2023-01-21T11:12:49.901Z,1022.62
2023-01-21T11:13:49.831Z,1022.68
2023-01-21T11:14:49.770Z,1022.59
2023-01-21T11:15:49.742Z,1022.62
2023-01-21T11:16:49.643Z,1022.65
2023-01-21T11:17:49.573Z,1022.60
2023-01-21T11:18:49.483Z,1022.63
2023-01-21T11:19:49.415Z,1022.56
2023-01-21T11:20:49.351Z,1022.66
2023-01-21T11:21:49.286Z,1022.58
2023-01-21T11:22:49.205Z,1022.53
2023-01-21T11:23:49.133Z,1022.52
2023-01-21T11:24:49.073Z,1022.53
2023-01-21T11:25:49.008Z,1022.48
2023-01-21T11:26:48.928Z,1022.48
2023-01-21T11:27:48.855Z,1022.43
2023-01-21T11:28:48.794Z,1022.44
2023-01-21T11:29:48.730Z,1022.45
2023-01-21T11:30:51.554Z,1022.41
2023-01-21T11:31:48.742Z,1022.43
2023-01-21T11:32:48.513Z,1022.41
2023-01-21T11:33:48.442Z,1022.41
2023-01-21T11:34:48.376Z,1022.40
2023-01-21T11:35:48.302Z,1022.41
2023-01-21T11:36:48.240Z,1022.32
2023-01-21T11:37:48.159Z,1022.33
2023-01-21T11:38:48.112Z,1022.25
2023-01-21T11:39:48.023Z,1022.27
2023-01-21T11:40:47.956Z,1022.21
2023-01-21T11:41:47.883Z,1022.21
2023-01-21T11:42:47.820Z,1022.16
2023-01-21T11:43:47.744Z,1022.19
2023-01-21T11:44:47.683Z,1022.18
2023-01-21T11:45:47.607Z,1022.24
2023-01-21T11:46:47.543Z,1022.22
2023-01-21T11:47:47.474Z,1022.19
2023-01-21T11:48:47.401Z,1022.08
2023-01-21T11:49:47.331Z,1022.16
2023-01-21T11:50:47.309Z,1022.10
2023-01-21T11:51:47.202Z,1022.12
2023-01-21T11:52:47.134Z,1022.16
2023-01-21T11:53:47.052Z,1022.17
2023-01-21T11:54:46.989Z,1022.14
2023-01-21T11:55:46.927Z,1022.16
2023-01-21T11:56:46.848Z,1022.18
2023-01-21T11:57:46.777Z,1022.18
2023-01-21T11:58:46.706Z,1022.07
2023-01-21T11:59:46.643Z,1022.16
2023-01-21T12:00:46.642Z,1022.16
2023-01-21T12:01:46.502Z,1022.17
2023-01-21T12:02:46.501Z,1022.12
2023-01-21T12:03:46.391Z,1022.07
2023-01-21T12:04:46.293Z,1022.11